Avalon, California
Current Conditions -  °F | °C
As of 1:51 PM on Tuesday 25 Nov 2014 (Local Time) from KAVX Reporting Station
Clear Clear  
Wind Chill: 96°   Ceiling: Unl
Heat Index: 96°   Visibility: 10mi
Dew Point: 10°   Wind: 7mph
Humidity: 4%   Direction: 330°NNW
Pressure: 30.33"   Gusts: NA
Location:  33.34°N, 118.33°W
Report Text: KAVX 252151Z AUTO 33006KT 10SM CLR 36/M12 A3033 RMK AO2 SLP235 T03561122
Loading
Personal Weather Stations






























Interactive Weather Map New forecast layout! Learn more

10-Day Weather Forecast

Advertisements
Track Severe Weather on mobile